Time;durP1;ratioP1;P1;durP2;ratioP2;P2;SDS_P1;SDS_P2;PMS_P1;PMS_P2;Temp;Humidity;BMP_temperature;BMP_pressure;BME280_temperature;BME280_humidity;BME280_pressure;Samples;Min_cycle;Max_cycle;Signal;HPM_P1;HPM_P2
2022/01/08 00:07:16;;;;;;;4.70;2.80;;;5.50;94.40;;;;;;20911238;28;20286;-66
2022/01/08 00:17:19;;;;;;;4.70;3.20;;;5.50;94.70;;;;;;20917567;28;20270;-66
2022/01/08 00:27:22;;;;;;;8.00;3.80;;;5.50;94.30;;;;;;20926153;28;20295;-67
2022/01/08 00:37:24;;;;;;;4.53;3.23;;;5.50;94.60;;;;;;20925215;28;20660;-67
2022/01/08 00:47:25;;;;;;;5.33;3.67;;;5.40;94.40;;;;;;20924587;28;20697;-65
2022/01/08 00:57:27;;;;;;;7.10;3.80;;;5.40;94.90;;;;;;20923967;28;20212;-66
2022/01/08 01:07:29;;;;;;;6.43;3.83;;;5.40;94.40;;;;;;20847789;28;20251;-65
2022/01/08 01:17:30;;;;;;;6.83;3.50;;;5.40;94.40;;;;;;20839172;28;20208;-65
2022/01/08 01:48:13;;;;;;;4.03;3.00;;;5.60;94.60;;;;;;20836721;28;20302;-65
2022/01/08 01:58:15;;;;;;;5.40;3.20;;;5.50;94.40;;;;;;20837618;28;20205;-66
2022/01/08 02:08:17;;;;;;;5.43;3.13;;;5.60;94.50;;;;;;20835244;28;20638;-66
2022/01/08 02:18:25;;;;;;;3.10;2.57;;;5.60;94.40;;;;;;20834579;28;20267;-66
2022/01/08 02:28:27;;;;;;;2.83;2.10;;;5.50;94.20;;;;;;20833710;28;20290;-65
2022/01/08 02:38:29;;;;;;;4.60;2.23;;;5.40;94.30;;;;;;20832524;28;20209;-66
2022/01/08 02:48:31;;;;;;;3.07;2.20;;;5.40;94.40;;;;;;20832131;28;20228;-65
2022/01/08 02:58:36;;;;;;;3.33;2.10;;;5.30;94.50;;;;;;20831971;28;20213;-65
2022/01/08 03:08:38;;;;;;;3.83;1.90;;;5.40;94.90;;;;;;20826856;28;20233;-65
2022/01/08 03:18:40;;;;;;;4.33;1.80;;;5.40;94.90;;;;;;20829499;28;20208;-65
2022/01/08 03:36:21;;;;;;;4.47;2.40;;;5.20;94.90;;;;;;21068129;28;20556;-67
2022/01/08 03:46:27;;;;;;;4.80;2.30;;;5.20;95.00;;;;;;21067338;28;20711;-66
2022/01/08 03:56:29;;;;;;;2.60;1.83;;;5.30;95.30;;;;;;21067414;28;20256;-66
2022/01/08 04:06:31;;;;;;;4.37;2.20;;;5.20;95.10;;;;;;21065950;28;20204;-65
2022/01/08 04:16:36;;;;;;;4.03;2.20;;;5.10;95.30;;;;;;21064972;28;20719;-64
2022/01/08 04:26:37;;;;;;;3.83;2.10;;;5.10;95.40;;;;;;21064139;28;20234;-64
2022/01/08 04:36:39;;;;;;;3.53;2.23;;;4.90;95.30;;;;;;21063567;28;20616;-66
2022/01/08 04:46:42;;;;;;;3.47;2.40;;;4.80;95.20;;;;;;21012336;28;20227;-65
2022/01/08 04:56:44;;;;;;;5.27;2.67;;;4.80;95.30;;;;;;21006464;28;20204;-65
2022/01/08 05:06:45;;;;;;;6.13;2.63;;;4.80;95.60;;;;;;20949887;28;20237;-67
2022/01/08 05:16:49;;;;;;;3.17;2.70;;;4.80;95.70;;;;;;20920508;28;20238;-65
2022/01/08 05:26:51;;;;;;;4.00;2.67;;;4.80;95.50;;;;;;20920828;28;20290;-67
2022/01/08 05:36:54;;;;;;;3.83;3.00;;;4.80;95.90;;;;;;20920143;28;20204;-66
2022/01/08 05:46:56;;;;;;;4.10;3.20;;;4.70;95.60;;;;;;20919286;28;20239;-68
2022/01/08 05:56:58;;;;;;;7.60;3.93;;;4.70;95.90;;;;;;20918395;28;20235;-68
2022/01/08 06:07:00;;;;;;;5.00;4.10;;;4.50;95.90;;;;;;20917716;28;20240;-66
2022/01/08 06:17:01;;;;;;;6.40;4.53;;;4.50;96.20;;;;;;20917007;28;20254;-67
2022/01/08 06:27:04;;;;;;;4.83;3.37;;;4.00;96.10;;;;;;20916300;28;20240;-66
2022/01/08 06:37:05;;;;;;;4.00;2.93;;;4.00;96.50;;;;;;20915445;28;20262;-66
2022/01/08 06:47:07;;;;;;;2.53;2.20;;;3.70;96.90;;;;;;20914530;28;20282;-66
2022/01/08 06:57:08;;;;;;;1.63;1.50;;;3.60;97.70;;;;;;20914239;28;20238;-65
2022/01/08 07:07:10;;;;;;;1.20;1.10;;;3.50;97.90;;;;;;20911558;28;20228;-66
2022/01/08 07:17:12;;;;;;;1.30;1.08;;;3.60;98.40;;;;;;20910690;28;20432;-67
2022/01/08 07:27:14;;;;;;;1.10;1.00;;;3.70;98.50;;;;;;20914810;28;20234;-66
2022/01/08 07:37:16;;;;;;;1.00;0.90;;;3.70;98.50;;;;;;20944737;28;20570;-65
2022/01/08 07:47:17;;;;;;;3.60;0.83;;;3.70;98.10;;;;;;20952816;28;20286;-65
2022/01/08 07:57:19;;;;;;;2.80;1.00;;;3.70;98.40;;;;;;20911659;28;20207;-67
2022/01/08 08:07:29;;;;;;;8.03;3.50;;;3.60;98.10;;;;;;20910561;28;20232;-64
2022/01/08 08:17:30;;;;;;;1.50;1.10;;;3.80;97.50;;;;;;20917110;28;20262;-65
2022/01/08 08:27:33;;;;;;;2.90;1.23;;;3.90;97.00;;;;;;20925470;28;20263;-66
2022/01/08 08:37:36;;;;;;;1.30;1.20;;;4.00;96.70;;;;;;20980288;28;20268;-67
2022/01/08 08:47:43;;;;;;;1.40;1.13;;;4.00;96.60;;;;;;21004540;28;20694;-67
2022/01/08 08:57:45;;;;;;;2.07;1.30;;;4.00;96.60;;;;;;21011189;28;20214;-67
2022/01/08 09:07:47;;;;;;;2.20;1.70;;;3.80;96.80;;;;;;21010792;28;20239;-67
2022/01/08 09:17:51;;;;;;;2.97;2.07;;;4.00;97.10;;;;;;21004911;28;20200;-68
2022/01/08 09:27:53;;;;;;;6.83;2.70;;;4.30;96.90;;;;;;21003838;28;20296;-65
2022/01/08 09:37:55;;;;;;;2.80;2.40;;;4.20;95.90;;;;;;21002981;28;20654;-67
2022/01/08 09:47:57;;;;;;;6.20;3.10;;;4.30;95.50;;;;;;21002120;28;20601;-67
2022/01/08 09:57:59;;;;;;;3.77;2.50;;;4.50;95.80;;;;;;21001605;28;20207;-67
2022/01/08 10:08:02;;;;;;;8.00;3.20;;;4.80;95.00;;;;;;21000156;28;20276;-68
2022/01/08 10:18:05;;;;;;;3.73;2.90;;;4.90;95.30;;;;;;20999692;28;20559;-67
2022/01/08 10:28:07;;;;;;;5.73;3.60;;;4.90;95.00;;;;;;20998538;28;20637;-67
2022/01/08 10:38:09;;;;;;;5.63;3.90;;;5.00;94.60;;;;;;20940012;28;20556;-68
2022/01/08 10:48:10;;;;;;;7.13;4.47;;;5.10;94.20;;;;;;20913289;28;20716;-66
2022/01/08 10:58:12;;;;;;;9.93;4.73;;;5.10;94.40;;;;;;20914204;28;20238;-69
2022/01/08 11:08:15;;;;;;;7.93;4.80;;;5.20;93.90;;;;;;20913243;28;20233;-68
2022/01/08 11:18:19;;;;;;;5.67;4.67;;;5.20;93.80;;;;;;20912983;28;20209;-68
2022/01/08 11:28:34;;;;;;;8.53;5.23;;;5.30;93.50;;;;;;20912403;28;20243;-66
2022/01/08 11:38:36;;;;;;;7.70;5.07;;;5.30;93.80;;;;;;20912134;28;20212;-67
2022/01/08 11:48:43;;;;;;;8.63;4.00;;;5.40;93.60;;;;;;20912237;28;20285;-69
2022/01/08 11:59:11;;;;;;;5.37;3.90;;;5.50;92.90;;;;;;20928600;28;20250;-69
2022/01/08 12:09:21;;;;;;;9.00;4.10;;;5.60;93.00;;;;;;20927623;28;20277;-68
2022/01/08 12:19:34;;;;;;;7.23;3.53;;;5.50;92.40;;;;;;20926452;28;20210;-68
2022/01/08 12:29:42;;;;;;;10.10;3.70;;;5.60;92.70;;;;;;20925043;28;20286;-68
2022/01/08 12:39:55;;;;;;;6.70;3.47;;;5.70;92.10;;;;;;20922405;28;20246;-69
2022/01/08 12:50:19;;;;;;;9.90;3.70;;;5.70;92.50;;;;;;20923465;28;20293;-68
2022/01/08 13:00:20;;;;;;;6.00;3.40;;;5.80;92.40;;;;;;20922640;28;20713;-65
2022/01/08 13:10:31;;;;;;;6.17;3.23;;;5.70;91.70;;;;;;20922779;28;20664;-66
2022/01/08 13:20:32;;;;;;;5.17;2.63;;;5.90;91.70;;;;;;20921314;28;20209;-68
2022/01/08 13:30:36;;;;;;;12.23;2.60;;;6.10;90.90;;;;;;20920752;28;20773;-68
2022/01/08 13:40:39;;;;;;;7.37;2.90;;;6.00;90.50;;;;;;20920487;28;20212;-69
2022/01/08 13:50:47;;;;;;;5.10;2.53;;;5.70;89.80;;;;;;20924099;28;20232;-69
2022/01/08 14:00:59;;;;;;;6.10;2.80;;;5.90;89.70;;;;;;20923652;28;20237;-65
2022/01/08 14:11:04;;;;;;;9.13;3.10;;;5.90;89.50;;;;;;20918065;28;20289;-72
2022/01/08 14:21:18;;;;;;;5.23;3.00;;;6.00;88.60;;;;;;20917358;28;20258;-63
2022/01/08 14:31:19;;;;;;;4.90;2.93;;;6.10;88.30;;;;;;20916738;28;20245;-66
2022/01/08 14:41:42;;;;;;;7.53;3.37;;;6.20;88.70;;;;;;20926393;28;20204;-68
2022/01/08 14:51:43;;;;;;;8.63;3.40;;;6.00;88.40;;;;;;20936026;28;20281;-71
2022/01/08 15:01:45;;;;;;;5.97;3.10;;;6.00;88.60;;;;;;20956142;28;20614;-65
2022/01/08 15:11:47;;;;;;;7.07;3.47;;;5.90;88.90;;;;;;20994904;28;20286;-66
2022/01/08 15:21:49;;;;;;;6.77;3.27;;;5.80;89.40;;;;;;20995158;28;20253;-68
2022/01/08 15:31:51;;;;;;;11.63;4.17;;;5.70;89.50;;;;;;20954538;28;20244;-67
2022/01/08 15:41:52;;;;;;;7.07;3.00;;;5.60;90.00;;;;;;20995059;28;20284;-73
2022/01/08 15:51:54;;;;;;;5.20;2.83;;;5.60;90.30;;;;;;20927682;28;20637;-70
2022/01/08 16:01:56;;;;;;;11.30;4.10;;;5.60;90.40;;;;;;20909710;28;20208;-70
2022/01/08 16:11:58;;;;;;;7.30;4.07;;;5.60;90.50;;;;;;20910550;28;20243;-69
2022/01/08 16:21:59;;;;;;;10.10;4.60;;;5.60;90.60;;;;;;20910363;28;20203;-66
2022/01/08 16:32:01;;;;;;;5.20;3.07;;;5.60;90.60;;;;;;20909613;28;20302;-65
2022/01/08 16:42:03;;;;;;;7.87;3.40;;;5.70;91.00;;;;;;20998732;28;20265;-66
2022/01/08 16:52:05;;;;;;;11.90;4.30;;;5.60;90.60;;;;;;21004510;28;20239;-65
2022/01/08 17:02:07;;;;;;;7.13;3.97;;;5.70;90.70;;;;;;21005805;28;20207;-69
2022/01/08 17:12:13;;;;;;;6.77;4.10;;;5.60;90.70;;;;;;21004861;28;20238;-68
2022/01/08 17:22:18;;;;;;;6.63;4.00;;;5.60;90.80;;;;;;21004145;28;20206;-68
2022/01/08 17:32:20;;;;;;;9.03;4.10;;;5.60;90.80;;;;;;21003030;28;20247;-70
2022/01/08 17:44:28;;;;;;;5.20;3.53;;;5.60;90.90;;;;;;20984380;28;20583;-69
2022/01/08 17:54:29;;;;;;;8.97;4.80;;;5.70;91.20;;;;;;20982622;28;20215;-69
2022/01/08 18:04:31;;;;;;;10.13;4.17;;;5.60;91.10;;;;;;20982580;28;20203;-68
2022/01/08 18:14:34;;;;;;;6.60;4.10;;;5.60;90.70;;;;;;20981580;28;20200;-67
2022/01/08 18:24:35;;;;;;;6.63;4.10;;;5.70;90.60;;;;;;20981531;28;20218;-66
2022/01/08 18:34:37;;;;;;;8.47;3.20;;;5.70;90.90;;;;;;20981235;28;20256;-66
2022/01/08 18:44:39;;;;;;;6.43;3.43;;;5.70;90.60;;;;;;20978041;28;20721;-67
2022/01/08 18:54:44;;;;;;;9.27;4.70;;;5.70;90.40;;;;;;20930127;28;20211;-66
2022/01/08 19:04:46;;;;;;;8.63;3.73;;;5.60;90.30;;;;;;20923587;28;20579;-66
2022/01/08 19:14:47;;;;;;;6.80;4.10;;;5.40;89.60;;;;;;20922180;28;20204;-64
2022/01/08 19:24:49;;;;;;;7.07;4.20;;;5.50;89.80;;;;;;20921643;28;20212;-65
2022/01/08 19:34:51;;;;;;;8.37;3.60;;;5.50;89.90;;;;;;20917118;28;20290;-65
2022/01/08 19:44:53;;;;;;;6.87;3.50;;;5.50;90.00;;;;;;20919673;28;20556;-65
2022/01/08 19:54:57;;;;;;;7.53;3.90;;;5.50;89.70;;;;;;20918763;28;20607;-64
2022/01/08 20:04:58;;;;;;;5.60;3.87;;;5.50;90.40;;;;;;20916487;28;20254;-67
2022/01/08 20:15:00;;;;;;;5.63;3.67;;;5.50;89.90;;;;;;20916715;28;20745;-65
2022/01/08 20:25:03;;;;;;;5.37;3.60;;;5.40;90.00;;;;;;20916729;28;20209;-65
2022/01/08 20:35:06;;;;;;;4.53;3.20;;;5.50;90.00;;;;;;20901609;28;20299;-68
2022/01/08 20:45:09;;;;;;;5.27;3.40;;;5.50;90.10;;;;;;20828447;28;20208;-64
2022/01/08 20:55:10;;;;;;;6.67;3.40;;;5.50;90.30;;;;;;20830390;28;20307;-68
2022/01/08 21:05:13;;;;;;;4.63;3.40;;;5.40;90.20;;;;;;20824871;28;20429;-65
2022/01/08 21:15:15;;;;;;;5.03;3.27;;;5.60;90.00;;;;;;20828569;28;20698;-67
2022/01/08 21:25:20;;;;;;;5.13;3.00;;;5.50;89.90;;;;;;20828528;28;20258;-68
2022/01/08 21:35:28;;;;;;;3.27;2.60;;;5.50;90.00;;;;;;20827826;28;20294;-69
2022/01/08 21:45:37;;;;;;;5.33;3.03;;;5.50;90.30;;;;;;20842999;28;20280;-69
2022/01/08 21:55:39;;;;;;;5.07;3.23;;;5.40;90.10;;;;;;20810978;28;20263;-66
2022/01/08 22:05:41;;;;;;;7.23;2.93;;;5.40;90.40;;;;;;20827159;28;20264;-69
2022/01/08 22:15:43;;;;;;;4.87;3.03;;;5.50;90.50;;;;;;20827566;28;20241;-66
2022/01/08 22:25:44;;;;;;;3.50;2.50;;;5.40;90.80;;;;;;20917494;28;20567;-69
2022/01/08 22:35:46;;;;;;;4.27;2.20;;;5.50;90.60;;;;;;20914190;28;20249;-69
2022/01/08 22:45:48;;;;;;;5.60;2.50;;;5.60;90.90;;;;;;20841075;28;20216;-65
2022/01/08 22:55:50;;;;;;;3.17;2.50;;;5.50;90.70;;;;;;20841909;28;20691;-68
2022/01/08 23:05:59;;;;;;;4.27;2.33;;;5.60;90.80;;;;;;20841030;28;20205;-67
2022/01/08 23:16:01;;;;;;;4.60;2.73;;;5.50;91.00;;;;;;20843081;28;20237;-67
2022/01/08 23:26:03;;;;;;;4.53;2.93;;;5.60;91.30;;;;;;20841861;28;20239;-66
2022/01/08 23:36:04;;;;;;;6.20;3.33;;;5.60;91.40;;;;;;20838748;28;20304;-67
2022/01/08 23:46:06;;;;;;;4.33;2.77;;;5.60;91.40;;;;;;20837692;28;20202;-66
2022/01/08 23:56:08;;;;;;;5.17;3.10;;;5.60;91.20;;;;;;20840041;28;20256;-67
